Time;durP1;ratioP1;P1;durP2;ratioP2;P2;SDS_P1;SDS_P2;PMS_P1;PMS_P2;Temp;Humidity;BMP_temperature;BMP_pressure;BME280_temperature;BME280_humidity;BME280_pressure;Samples;Min_cycle;Max_cycle;Signal;HPM_P1;HPM_P2
2022/08/22 00:01:52;;;;;;;;;;;;;;;;;;4807424;29;19929;-48
2022/08/22 00:04:38;;;;;;;;;;;;;;;;;;4807578;29;19925;-49
2022/08/22 00:07:31;;;;;;;;;;;;;;;;;;4807498;29;19925;-47
2022/08/22 00:10:01;;;;;;;;;;;;;;;;;;4807529;29;20377;-49
2022/08/22 00:12:35;;;;;;;;;;;;;;;;;;4807195;29;20343;-51
2022/08/22 00:15:15;;;;;;;;;;;;;;;;;;4807087;29;20271;-50
2022/08/22 00:18:02;;;;;;;;;;;;;;;;;;4807146;29;19925;-49
2022/08/22 00:20:37;;;;;;;;;;;;;;;;;;4807113;29;19932;-47
2022/08/22 00:23:22;;;;;;;;;;;;;;;;;;4806928;29;19956;-48
2022/08/22 00:26:01;;;;;;;;;;;;;;;;;;4807319;29;19925;-50
2022/08/22 00:28:39;;;;;;;;;;;;;;;;;;4806975;29;19925;-46
2022/08/22 00:31:09;;;;;;;;;;;;;;;;;;4807115;29;19925;-49
2022/08/22 00:33:43;;;;;;;;;;;;;;;;;;4807187;29;20335;-48
2022/08/22 00:36:28;;;;;;;;;;;;;;;;;;4806766;29;20377;-47
2022/08/22 00:39:13;;;;;;;;;;;;;;;;;;4806933;29;19973;-48
2022/08/22 00:41:43;;;;;;;;;;;;;;;;;;4806932;29;19948;-48
2022/08/22 00:44:28;;;;;;;;;;;;;;;;;;4806824;29;20072;-50
2022/08/22 00:46:55;;;;;;;;;;;;;;;;;;4807111;29;19936;-48
2022/08/22 00:49:40;;;;;;;;;;;;;;;;;;4806836;29;19971;-48
2022/08/22 00:52:29;;;;;;;;;;;;;;;;;;4806332;29;19929;-50
2022/08/22 00:54:56;;;;;;;;;;;;;;;;;;4806573;29;20380;-46
2022/08/22 00:57:47;;;;;;;;;;;;;;;;;;4806937;29;20011;-49
2022/08/22 01:00:23;;;;;;;;;;;;;;;;;;4806270;29;19925;-50
2022/08/22 01:03:08;;;;;;;;;;;;;;;;;;4806521;29;19960;-47
2022/08/22 01:05:54;;;;;;;;;;;;;;;;;;4806436;29;19931;-49
2022/08/22 01:08:41;;;;;;;;;;;;;;;;;;4806698;29;19958;-52
2022/08/22 01:11:32;;;;;;;;;;;;;;;;;;4806439;29;19925;-49
2022/08/22 01:14:08;;;;;;;;;;;;;;;;;;4806464;29;19933;-50
2022/08/22 01:16:57;;;;;;;;;;;;;;;;;;4805989;29;20748;-50
2022/08/22 01:19:51;;;;;;;;;;;;;;;;;;4810839;29;19929;-48
2022/08/22 01:22:24;;;;;;;;;;;;;;;;;;4824788;29;19957;-47
2022/08/22 01:25:17;;;;;;;;;;;;;;;;;;4824450;29;20031;-47
2022/08/22 01:28:00;;;;;;;;;;;;;;;;;;4824416;29;20023;-48
2022/08/22 01:30:46;;;;;;;;;;;;;;;;;;4824318;29;19963;-52
2022/08/22 01:33:24;;;;;;;;;;;;;;;;;;4824110;29;19947;-49
2022/08/22 01:35:58;;;;;;;;;;;;;;;;;;4824334;29;19928;-49
2022/08/22 01:38:34;;;;;;;;;;;;;;;;;;4824160;29;19967;-49
2022/08/22 01:41:15;;;;;;;;;;;;;;;;;;4824284;29;19928;-49
2022/08/22 01:43:52;;;;;;;;;;;;;;;;;;4823901;29;19925;-47
2022/08/22 01:46:31;;;;;;;;;;;;;;;;;;4824095;29;20397;-47
2022/08/22 01:49:13;;;;;;;;;;;;;;;;;;4824149;29;20408;-51
2022/08/22 01:51:46;;;;;;;;;;;;;;;;;;4823884;29;19924;-45
2022/08/22 01:54:33;;;;;;;;;;;;;;;;;;4823951;29;20410;-49
2022/08/22 01:57:01;;;;;;;;;;;;;;;;;;4823804;29;19925;-49
2022/08/22 01:59:36;;;;;;;;;;;;;;;;;;4823897;29;19964;-48
2022/08/22 02:02:15;;;;;;;;;;;;;;;;;;4823843;29;20274;-48
2022/08/22 02:04:47;;;;;;;;;;;;;;;;;;4822892;29;20019;-51
2022/08/22 02:07:26;;;;;;;;;;;;;;;;;;4823960;29;19925;-51
2022/08/22 02:10:11;;;;;;;;;;;;;;;;;;4823682;29;19924;-50
2022/08/22 02:12:42;;;;;;;;;;;;;;;;;;4823318;29;19931;-50
2022/08/22 02:15:12;;;;;;;;;;;;;;;;;;4823836;29;20304;-49
2022/08/22 02:18:01;;;;;;;;;;;;;;;;;;4823757;29;19925;-48
2022/08/22 02:20:48;;;;;;;;;;;;;;;;;;4810374;29;19933;-47
2022/08/22 02:23:31;;;;;;;;;;;;;;;;;;4804421;29;20003;-46
2022/08/22 02:26:01;;;;;;;;;;;;;;;;;;4805520;29;20301;-49
2022/08/22 02:28:28;;;;;;;;;;;;;;;;;;4805203;29;19929;-48
2022/08/22 02:31:08;;;;;;;;;;;;;;;;;;4805488;29;19925;-46
2022/08/22 02:33:44;;;;;;;;;;;;;;;;;;4805094;29;19924;-47
2022/08/22 02:36:21;;;;;;;;;;;;;;;;;;4805126;29;19940;-46
2022/08/22 02:38:57;;;;;;;;;;;;;;;;;;4805093;29;19929;-47
2022/08/22 02:41:27;;;;;;;;;;;;;;;;;;4805396;29;19932;-50
2022/08/22 02:44:13;;;;;;;;;;;;;;;;;;4805217;29;19925;-49
2022/08/22 02:46:40;;;;;;;;;;;;;;;;;;4805073;29;19929;-46
2022/08/22 02:49:26;;;;;;;;;;;;;;;;;;4805153;29;19925;-49
2022/08/22 02:52:01;;;;;;;;;;;;;;;;;;4805158;29;19925;-51
2022/08/22 02:54:34;;;;;;;;;;;;;;;;;;4804880;29;20008;-44
2022/08/22 02:57:05;;;;;;;;;;;;;;;;;;4804777;29;19986;-50
2022/08/22 02:59:52;;;;;;;;;;;;;;;;;;4805017;29;20442;-50
2022/08/22 03:02:29;;;;;;;;;;;;;;;;;;4805038;29;20408;-49
2022/08/22 03:04:58;;;;;;;;;;;;;;;;;;4804917;29;19937;-52
2022/08/22 03:07:33;;;;;;;;;;;;;;;;;;4805272;29;20401;-49
2022/08/22 03:10:15;;;;;;;;;;;;;;;;;;4805098;29;20013;-51
2022/08/22 03:12:56;;;;;;;;;;;;;;;;;;4818594;29;20023;-49
2022/08/22 03:15:29;;;;;;;;;;;;;;;;;;4805310;29;20375;-49
2022/08/22 03:18:11;;;;;;;;;;;;;;;;;;4808703;29;19932;-48
2022/08/22 03:20:44;;;;;;;;;;;;;;;;;;4836062;29;19931;-51
2022/08/22 03:23:14;;;;;;;;;;;;;;;;;;4826025;29;20031;-50
2022/08/22 03:26:08;;;;;;;;;;;;;;;;;;4820476;29;19929;-49
2022/08/22 03:28:45;;;;;;;;;;;;;;;;;;4808648;29;19940;-47
2022/08/22 03:31:25;;;;;;;;;;;;;;;;;;4808257;29;19925;-49
2022/08/22 03:34:11;;;;;;;;;;;;;;;;;;4808201;29;19968;-50
2022/08/22 03:36:38;;;;;;;;;;;;;;;;;;4807745;29;20404;-48
2022/08/22 03:39:12;;;;;;;;;;;;;;;;;;4808012;29;20389;-47
2022/08/22 03:41:54;;;;;;;;;;;;;;;;;;4807976;29;19929;-48
2022/08/22 03:44:41;;;;;;;;;;;;;;;;;;4807776;29;19925;-47
2022/08/22 03:47:30;;;;;;;;;;;;;;;;;;4810303;29;20304;-48
2022/08/22 03:50:15;;;;;;;;;;;;;;;;;;4807820;29;19925;-48
2022/08/22 03:53:06;;;;;;;;;;;;;;;;;;4807342;29;19929;-49
2022/08/22 03:56:06;;;;;;;;;;;;;;;;;;4807451;29;19968;-47
2022/08/22 03:58:48;;;;;;;;;;;;;;;;;;4807443;29;20373;-48
2022/08/22 04:01:16;;;;;;;;;;;;;;;;;;4807399;29;20368;-50
2022/08/22 04:04:00;;;;;;;;;;;;;;;;;;4807586;29;19925;-48
2022/08/22 04:06:47;;;;;;;;;;;;;;;;;;4807392;29;20008;-49
2022/08/22 04:09:23;;;;;;;;;;;;;;;;;;4807360;29;19965;-49
2022/08/22 04:11:59;;;;;;;;;;;;;;;;;;4807216;29;19932;-48
2022/08/22 04:14:32;;;;;;;;;;;;;;;;;;4807409;29;19952;-50
2022/08/22 04:17:08;;;;;;;;;;;;;;;;;;4807329;29;20300;-52
2022/08/22 04:19:41;;;;;;;;;;;;;;;;;;4813314;29;20069;-48
2022/08/22 04:22:20;;;;;;;;;;;;;;;;;;4824949;29;19925;-49
2022/08/22 04:24:52;;;;;;;;;;;;;;;;;;4824359;29;19929;-48
2022/08/22 04:27:22;;;;;;;;;;;;;;;;;;4838551;29;19929;-51
2022/08/22 04:29:58;;;;;;;;;;;;;;;;;;4825129;29;19925;-48
2022/08/22 04:32:28;;;;;;;;;;;;;;;;;;4825164;29;20269;-52
2022/08/22 04:35:06;;;;;;;;;;;;;;;;;;4825149;29;19929;-49
2022/08/22 04:37:57;;;;;;;;;;;;;;;;;;4825053;29;19971;-48
2022/08/22 04:40:27;;;;;;;;;;;;;;;;;;4825100;29;19946;-48
2022/08/22 04:43:00;;;;;;;;;;;;;;;;;;4825202;29;20011;-47
2022/08/22 04:45:44;;;;;;;;;;;;;;;;;;4817969;29;19925;-47
2022/08/22 04:48:41;;;;;;;;;;;;;;;;;;4806865;29;19925;-51
2022/08/22 04:51:16;;;;;;;;;;;;;;;;;;4809526;29;19925;-47
2022/08/22 04:54:01;;;;;;;;;;;;;;;;;;4806664;29;19932;-47
2022/08/22 04:56:41;;;;;;;;;;;;;;;;;;4806465;29;20366;-46
2022/08/22 04:59:15;;;;;;;;;;;;;;;;;;4806663;29;19925;-49
2022/08/22 05:01:47;;;;;;;;;;;;;;;;;;4806415;29;19951;-49
2022/08/22 05:04:19;;;;;;;;;;;;;;;;;;4820022;29;19932;-49
2022/08/22 05:06:49;;;;;;;;;;;;;;;;;;4806144;29;19929;-47
2022/08/22 05:09:20;;;;;;;;;;;;;;;;;;4806520;29;19931;-46
2022/08/22 05:11:52;;;;;;;;;;;;;;;;;;4806257;29;20437;-50
2022/08/22 05:14:24;;;;;;;;;;;;;;;;;;4806321;29;20453;-49
2022/08/22 05:16:55;;;;;;;;;;;;;;;;;;4806216;29;20031;-48
2022/08/22 05:19:29;;;;;;;;;;;;;;;;;;4806239;29;19936;-50
2022/08/22 05:21:58;;;;;;;;;;;;;;;;;;4806200;29;19925;-47
2022/08/22 05:24:30;;;;;;;;;;;;;;;;;;4806009;29;19929;-47
2022/08/22 05:26:59;;;;;;;;;;;;;;;;;;4806320;29;20301;-51
2022/08/22 05:29:28;;;;;;;;;;;;;;;;;;4806144;29;20365;-48
2022/08/22 05:32:00;;;;;;;;;;;;;;;;;;4806345;29;20385;-50
2022/08/22 05:34:31;;;;;;;;;;;;;;;;;;4805948;29;19979;-50
2022/08/22 05:37:05;;;;;;;;;;;;;;;;;;4805851;29;19929;-50
2022/08/22 05:39:36;;;;;;;;;;;;;;;;;;4804911;29;19925;-49
2022/08/22 05:42:03;;;;;;;;;;;;;;;;;;4805869;29;19948;-50
2022/08/22 05:44:33;;;;;;;;;;;;;;;;;;4805601;29;19936;-48
2022/08/22 05:47:01;;;;;;;;;;;;;;;;;;4805620;29;19931;-52
2022/08/22 05:49:31;;;;;;;;;;;;;;;;;;4804848;29;20386;-47
2022/08/22 05:52:07;;;;;;;;;;;;;;;;;;4819866;29;19925;-47
2022/08/22 05:54:41;;;;;;;;;;;;;;;;;;4805350;29;19925;-49
2022/08/22 05:57:12;;;;;;;;;;;;;;;;;;4805613;29;20301;-48
2022/08/22 05:59:41;;;;;;;;;;;;;;;;;;4805321;29;19964;-52
2022/08/22 06:02:18;;;;;;;;;;;;;;;;;;4805647;29;19928;-46
2022/08/22 06:04:50;;;;;;;;;;;;;;;;;;4805153;29;19929;-48
2022/08/22 06:07:24;;;;;;;;;;;;;;;;;;4805544;29;19928;-51
2022/08/22 06:10:01;;;;;;;;;;;;;;;;;;4805519;29;19925;-50
2022/08/22 06:12:35;;;;;;;;;;;;;;;;;;4805144;29;20001;-46
2022/08/22 06:15:12;;;;;;;;;;;;;;;;;;4805439;29;20339;-47
2022/08/22 06:17:47;;;;;;;;;;;;;;;;;;4805277;29;19925;-48
2022/08/22 06:20:21;;;;;;;;;;;;;;;;;;4816587;29;19924;-46
2022/08/22 06:22:50;;;;;;;;;;;;;;;;;;4823276;29;19929;-52
2022/08/22 06:25:21;;;;;;;;;;;;;;;;;;4823820;29;20274;-48
2022/08/22 06:27:48;;;;;;;;;;;;;;;;;;4823520;29;20744;-48
2022/08/22 06:30:18;;;;;;;;;;;;;;;;;;4823652;29;19929;-50
2022/08/22 06:32:49;;;;;;;;;;;;;;;;;;4837348;29;19928;-52
2022/08/22 06:35:25;;;;;;;;;;;;;;;;;;4823798;29;19932;-51
2022/08/22 06:37:54;;;;;;;;;;;;;;;;;;4823387;29;19932;-48
2022/08/22 06:40:22;;;;;;;;;;;;;;;;;;4823369;29;19932;-46
2022/08/22 06:42:50;;;;;;;;;;;;;;;;;;4823425;29;20003;-49
2022/08/22 06:45:36;;;;;;;;;;;;;;;;;;4823435;29;19928;-46
2022/08/22 06:48:03;;;;;;;;;;;;;;;;;;4823515;29;19963;-50
2022/08/22 06:50:32;;;;;;;;;;;;;;;;;;4823770;29;19925;-50
2022/08/22 06:53:05;;;;;;;;;;;;;;;;;;4826969;29;19956;-52
2022/08/22 06:55:34;;;;;;;;;;;;;;;;;;4826680;29;19932;-46
2022/08/22 06:58:04;;;;;;;;;;;;;;;;;;4826439;29;20019;-49
2022/08/22 07:00:32;;;;;;;;;;;;;;;;;;4826653;29;19925;-50
2022/08/22 07:03:08;;;;;;;;;;;;;;;;;;4826697;29;20389;-46
2022/08/22 07:05:38;;;;;;;;;;;;;;;;;;4826520;29;20300;-51
2022/08/22 07:08:07;;;;;;;;;;;;;;;;;;4826512;29;19931;-47
2022/08/22 07:10:34;;;;;;;;;;;;;;;;;;4826454;29;19929;-49
2022/08/22 07:13:03;;;;;;;;;;;;;;;;;;4826366;29;20376;-50
2022/08/22 07:15:35;;;;;;;;;;;;;;;;;;4840459;29;20008;-49
2022/08/22 07:18:16;;;;;;;;;;;;;;;;;;4826284;29;19931;-47
2022/08/22 07:20:48;;;;;;;;;;;;;;;;;;4811627;29;19929;-54
2022/08/22 07:23:30;;;;;;;;;;;;;;;;;;4807903;29;19972;-48
2022/08/22 07:26:11;;;;;;;;;;;;;;;;;;4808634;29;19925;-48
2022/08/22 07:28:42;;;;;;;;;;;;;;;;;;4807964;29;19931;-49
2022/08/22 07:31:31;;;;;;;;;;;;;;;;;;4808072;29;19924;-53
2022/08/22 07:34:03;;;;;;;;;;;;;;;;;;4808349;29;19925;-50
2022/08/22 07:36:37;;;;;;;;;;;;;;;;;;4807599;29;20012;-48
2022/08/22 07:39:24;;;;;;;;;;;;;;;;;;4808085;29;19932;-46
2022/08/22 07:42:10;;;;;;;;;;;;;;;;;;4807782;29;19986;-49
2022/08/22 07:44:54;;;;;;;;;;;;;;;;;;4807777;29;20381;-51
2022/08/22 07:47:23;;;;;;;;;;;;;;;;;;4807760;29;20347;-47
2022/08/22 07:49:57;;;;;;;;;;;;;;;;;;4807012;29;19925;-50
2022/08/22 07:52:29;;;;;;;;;;;;;;;;;;4807769;29;19933;-49
2022/08/22 07:55:02;;;;;;;;;;;;;;;;;;4807921;29;19925;-51
2022/08/22 07:57:31;;;;;;;;;;;;;;;;;;4807529;29;19990;-49
2022/08/22 07:59:59;;;;;;;;;;;;;;;;;;4807840;29;19925;-45
2022/08/22 08:02:44;;;;;;;;;;;;;;;;;;4806242;29;20305;-49
2022/08/22 08:05:12;;;;;;;;;;;;;;;;;;4807453;29;20428;-49
2022/08/22 08:07:42;;;;;;;;;;;;;;;;;;4807576;29;19964;-48
2022/08/22 08:10:13;;;;;;;;;;;;;;;;;;4807239;29;20001;-48
2022/08/22 08:12:43;;;;;;;;;;;;;;;;;;4807263;29;19924;-51
2022/08/22 08:15:27;;;;;;;;;;;;;;;;;;4807440;29;20393;-50
2022/08/22 08:17:58;;;;;;;;;;;;;;;;;;4807591;29;20271;-48
2022/08/22 08:20:26;;;;;;;;;;;;;;;;;;4819736;29;19924;-48
2022/08/22 08:22:54;;;;;;;;;;;;;;;;;;4825469;29;19925;-47
2022/08/22 08:25:24;;;;;;;;;;;;;;;;;;4839477;29;19929;-49
2022/08/22 08:30:41;;;;;;;;;;;;;;;;;;4825075;29;19924;-48
2022/08/22 08:33:14;;;;;;;;;;;;;;;;;;4825271;29;19932;-50
2022/08/22 08:35:54;;;;;;;;;;;;;;;;;;4825137;29;19924;-46
2022/08/22 08:38:31;;;;;;;;;;;;;;;;;;4825156;29;19924;-47
2022/08/22 08:41:16;;;;;;;;;;;;;;;;;;4825219;29;19925;-48
2022/08/22 08:43:56;;;;;;;;;;;;;;;;;;4824863;29;19925;-49
2022/08/22 08:46:29;;;;;;;;;;;;;;;;;;4824833;29;19940;-47
2022/08/22 08:49:09;;;;;;;;;;;;;;;;;;4824975;29;19947;-48
2022/08/22 08:51:46;;;;;;;;;;;;;;;;;;4824907;29;19929;-48
2022/08/22 08:54:14;;;;;;;;;;;;;;;;;;4824858;29;20292;-51
2022/08/22 08:56:41;;;;;;;;;;;;;;;;;;4824668;29;20426;-47
2022/08/22 08:59:25;;;;;;;;;;;;;;;;;;4824567;29;19936;-50
2022/08/22 09:02:01;;;;;;;;;;;;;;;;;;4824702;29;19925;-49
2022/08/22 09:04:43;;;;;;;;;;;;;;;;;;4824598;29;19974;-50
2022/08/22 09:07:20;;;;;;;;;;;;;;;;;;4824655;29;19924;-49
2022/08/22 09:10:10;;;;;;;;;;;;;;;;;;4824378;29;19977;-51
2022/08/22 09:12:53;;;;;;;;;;;;;;;;;;4808869;29;19925;-49
2022/08/22 09:15:56;;;;;;;;;;;;;;;;;;4806224;29;20305;-47
2022/08/22 09:18:50;;;;;;;;;;;;;;;;;;4806099;29;19981;-46
2022/08/22 09:21:35;;;;;;;;;;;;;;;;;;4805621;29;19932;-46
2022/08/22 09:24:21;;;;;;;;;;;;;;;;;;4805415;29;20400;-46
2022/08/22 09:26:56;;;;;;;;;;;;;;;;;;4806049;29;20402;-47
2022/08/22 09:29:34;;;;;;;;;;;;;;;;;;4805981;29;19929;-47
2022/08/22 09:32:32;;;;;;;;;;;;;;;;;;4805969;29;20401;-47
2022/08/22 09:35:11;;;;;;;;;;;;;;;;;;4806097;29;20401;-46
2022/08/22 09:37:50;;;;;;;;;;;;;;;;;;4805775;29;19925;-49
2022/08/22 09:40:20;;;;;;;;;;;;;;;;;;4805627;29;20329;-46
2022/08/22 09:43:00;;;;;;;;;;;;;;;;;;4805464;29;19936;-49
2022/08/22 09:45:40;;;;;;;;;;;;;;;;;;4806093;29;20286;-48
2022/08/22 09:48:11;;;;;;;;;;;;;;;;;;4805902;29;19925;-49
2022/08/22 09:50:54;;;;;;;;;;;;;;;;;;4805266;29;19947;-48
2022/08/22 09:53:59;;;;;;;;;;;;;;;;;;4819579;29;19933;-45
2022/08/22 09:56:35;;;;;;;;;;;;;;;;;;4805740;29;19936;-49
2022/08/22 09:59:35;;;;;;;;;;;;;;;;;;4805661;29;19924;-49
2022/08/22 10:02:16;;;;;;;;;;;;;;;;;;4804052;29;19925;-51
2022/08/22 10:04:52;;;;;;;;;;;;;;;;;;4805474;29;19935;-46
2022/08/22 10:07:25;;;;;;;;;;;;;;;;;;4805453;29;20019;-49
2022/08/22 10:10:02;;;;;;;;;;;;;;;;;;4805301;29;19932;-48
2022/08/22 10:12:32;;;;;;;;;;;;;;;;;;4805497;29;19931;-51
2022/08/22 10:15:08;;;;;;;;;;;;;;;;;;4805171;29;19925;-50
2022/08/22 10:17:41;;;;;;;;;;;;;;;;;;4805413;29;20024;-49
2022/08/22 10:20:27;;;;;;;;;;;;;;;;;;4815974;29;19975;-50
2022/08/22 10:23:05;;;;;;;;;;;;;;;;;;4823629;29;19925;-48
2022/08/22 10:25:39;;;;;;;;;;;;;;;;;;4823096;29;19977;-45
2022/08/22 10:28:15;;;;;;;;;;;;;;;;;;4823566;29;19935;-46
2022/08/22 10:30:48;;;;;;;;;;;;;;;;;;4837155;29;20015;-47
2022/08/22 10:33:15;;;;;;;;;;;;;;;;;;4823468;29;20363;-46
2022/08/22 10:35:42;;;;;;;;;;;;;;;;;;4823570;29;19924;-45
2022/08/22 10:38:19;;;;;;;;;;;;;;;;;;4823713;29;19940;-46
2022/08/22 10:40:58;;;;;;;;;;;;;;;;;;4823217;29;20007;-45
2022/08/22 10:43:35;;;;;;;;;;;;;;;;;;4823635;29;19928;-46
2022/08/22 10:46:07;;;;;;;;;;;;;;;;;;4823383;29;19925;-49
2022/08/22 10:48:50;;;;;;;;;;;;;;;;;;4823220;29;19929;-43
2022/08/22 10:51:21;;;;;;;;;;;;;;;;;;4823470;29;19928;-45
2022/08/22 10:54:06;;;;;;;;;;;;;;;;;;4823171;29;19933;-48
2022/08/22 10:56:48;;;;;;;;;;;;;;;;;;4823273;29;19925;-46
2022/08/22 10:59:24;;;;;;;;;;;;;;;;;;4823193;29;19925;-47
2022/08/22 11:02:08;;;;;;;;;;;;;;;;;;4823018;29;19932;-50
2022/08/22 11:05:02;;;;;;;;;;;;;;;;;;4823013;29;19964;-47
2022/08/22 11:07:32;;;;;;;;;;;;;;;;;;4829043;29;19925;-47
2022/08/22 11:10:06;;;;;;;;;;;;;;;;;;4823326;29;19947;-50
2022/08/22 11:12:36;;;;;;;;;;;;;;;;;;4822875;29;20373;-47
2022/08/22 11:15:39;;;;;;;;;;;;;;;;;;4823117;29;19931;-48
2022/08/22 11:18:16;;;;;;;;;;;;;;;;;;4822581;29;20381;-45
2022/08/22 11:20:46;;;;;;;;;;;;;;;;;;4807989;29;19929;-48
2022/08/22 11:23:32;;;;;;;;;;;;;;;;;;4804675;29;19933;-49
2022/08/22 11:26:02;;;;;;;;;;;;;;;;;;4804935;29;19925;-45
2022/08/22 11:28:50;;;;;;;;;;;;;;;;;;4804825;29;19933;-46
2022/08/22 11:31:30;;;;;;;;;;;;;;;;;;4803615;29;20402;-46
2022/08/22 11:34:08;;;;;;;;;;;;;;;;;;4804897;29;19925;-47
2022/08/22 11:36:38;;;;;;;;;;;;;;;;;;4805328;29;19925;-45
2022/08/22 11:39:11;;;;;;;;;;;;;;;;;;4807708;29;19931;-47
2022/08/22 11:41:43;;;;;;;;;;;;;;;;;;4807732;29;19929;-47
2022/08/22 11:44:14;;;;;;;;;;;;;;;;;;4808056;29;19931;-45
2022/08/22 11:46:46;;;;;;;;;;;;;;;;;;4807936;29;19929;-48
2022/08/22 11:49:24;;;;;;;;;;;;;;;;;;4807865;29;20404;-46
2022/08/22 11:52:01;;;;;;;;;;;;;;;;;;4807662;29;19933;-49
2022/08/22 11:54:29;;;;;;;;;;;;;;;;;;4807470;29;19929;-44
2022/08/22 11:57:23;;;;;;;;;;;;;;;;;;4821629;29;19932;-46
2022/08/22 11:59:59;;;;;;;;;;;;;;;;;;4806771;29;19925;-47
2022/08/22 12:02:32;;;;;;;;;;;;;;;;;;4807594;29;19925;-44
2022/08/22 12:05:11;;;;;;;;;;;;;;;;;;4807615;29;19925;-47
2022/08/22 12:07:44;;;;;;;;;;;;;;;;;;4807360;29;19928;-50
2022/08/22 12:10:18;;;;;;;;;;;;;;;;;;4807433;29;20015;-48
2022/08/22 12:12:59;;;;;;;;;;;;;;;;;;4807276;29;19935;-46
2022/08/22 12:15:50;;;;;;;;;;;;;;;;;;4807491;29;19964;-45
2022/08/22 12:18:19;;;;;;;;;;;;;;;;;;4804955;29;20484;-45
2022/08/22 12:21:11;;;;;;;;;;;;;;;;;;4822254;29;19967;-44
2022/08/22 12:23:41;;;;;;;;;;;;;;;;;;4825069;29;19932;-46
2022/08/22 12:26:14;;;;;;;;;;;;;;;;;;4825222;29;20020;-44
2022/08/22 12:28:41;;;;;;;;;;;;;;;;;;4825078;29;19924;-47
2022/08/22 12:31:09;;;;;;;;;;;;;;;;;;4825221;29;20391;-48
2022/08/22 12:33:55;;;;;;;;;;;;;;;;;;4825148;29;20353;-46
2022/08/22 12:36:43;;;;;;;;;;;;;;;;;;4824929;29;20008;-44
2022/08/22 12:39:29;;;;;;;;;;;;;;;;;;4825133;29;19924;-44
2022/08/22 12:41:59;;;;;;;;;;;;;;;;;;4825006;29;19968;-45
2022/08/22 12:44:26;;;;;;;;;;;;;;;;;;4825258;29;19933;-45
2022/08/22 12:46:59;;;;;;;;;;;;;;;;;;4824863;29;19924;-46
2022/08/22 12:49:49;;;;;;;;;;;;;;;;;;4824772;29;19963;-48
2022/08/22 12:52:27;;;;;;;;;;;;;;;;;;4826254;29;19936;-47
2022/08/22 12:55:00;;;;;;;;;;;;;;;;;;4824767;29;19925;-51
2022/08/22 12:57:33;;;;;;;;;;;;;;;;;;4824939;29;19932;-45
2022/08/22 13:00:26;;;;;;;;;;;;;;;;;;4823646;29;20393;-45
2022/08/22 13:02:57;;;;;;;;;;;;;;;;;;4796259;29;19932;-44
2022/08/22 13:05:26;;;;;;;;;;;;;;;;;;4805466;29;19928;-46
2022/08/22 13:07:55;;;;;;;;;;;;;;;;;;4806535;29;19925;-48
2022/08/22 13:10:45;;;;;;;;;;;;;;;;;;4806519;29;19925;-43
2022/08/22 13:13:14;;;;;;;;;;;;;;;;;;4806045;29;19936;-43
2022/08/22 13:15:46;;;;;;;;;;;;;;;;;;4806275;29;20008;-43
2022/08/22 13:18:23;;;;;;;;;;;;;;;;;;4806014;29;20374;-43
2022/08/22 13:20:59;;;;;;;;;;;;;;;;;;4822853;29;19932;-46
2022/08/22 13:23:30;;;;;;;;;;;;;;;;;;4824346;29;19925;-44
2022/08/22 13:26:03;;;;;;;;;;;;;;;;;;4824486;29;19936;-48
2022/08/22 13:28:36;;;;;;;;;;;;;;;;;;4824493;29;19924;-47
2022/08/22 13:31:04;;;;;;;;;;;;;;;;;;4824254;29;20007;-46
2022/08/22 13:33:37;;;;;;;;;;;;;;;;;;4824359;29;19928;-44
2022/08/22 13:36:12;;;;;;;;;;;;;;;;;;4823983;29;20053;-44
2022/08/22 13:38:49;;;;;;;;;;;;;;;;;;4811995;29;19931;-43
2022/08/22 13:41:28;;;;;;;;;;;;;;;;;;4805721;29;19929;-44
2022/08/22 13:43:58;;;;;;;;;;;;;;;;;;4805958;29;19925;-45
2022/08/22 13:46:29;;;;;;;;;;;;;;;;;;4805757;29;19924;-44
2022/08/22 13:48:57;;;;;;;;;;;;;;;;;;4805897;29;20016;-44
2022/08/22 13:51:45;;;;;;;;;;;;;;;;;;4806090;29;19964;-44
2022/08/22 13:54:13;;;;;;;;;;;;;;;;;;4805102;29;19925;-45
2022/08/22 13:56:52;;;;;;;;;;;;;;;;;;4805344;29;19925;-47
2022/08/22 13:59:30;;;;;;;;;;;;;;;;;;4805486;29;19924;-43
2022/08/22 14:02:23;;;;;;;;;;;;;;;;;;4805193;29;19931;-43
2022/08/22 14:04:51;;;;;;;;;;;;;;;;;;4805517;29;19936;-47
2022/08/22 14:07:23;;;;;;;;;;;;;;;;;;4805593;29;20489;-43
2022/08/22 14:09:50;;;;;;;;;;;;;;;;;;4805759;29;20339;-46
2022/08/22 14:12:25;;;;;;;;;;;;;;;;;;4805427;29;19933;-46
2022/08/22 14:14:58;;;;;;;;;;;;;;;;;;4805369;29;19925;-45
2022/08/22 14:17:32;;;;;;;;;;;;;;;;;;4805394;29;19924;-44
2022/08/22 14:20:07;;;;;;;;;;;;;;;;;;4805303;29;19925;-45
2022/08/22 14:22:38;;;;;;;;;;;;;;;;;;4818143;29;19929;-43
2022/08/22 14:25:05;;;;;;;;;;;;;;;;;;4804782;29;19932;-46
2022/08/22 14:27:35;;;;;;;;;;;;;;;;;;4805405;29;19925;-42
2022/08/22 14:30:05;;;;;;;;;;;;;;;;;;4805111;29;19932;-43
2022/08/22 14:32:34;;;;;;;;;;;;;;;;;;4804950;29;20385;-44
2022/08/22 14:35:03;;;;;;;;;;;;;;;;;;4805371;29;19963;-44
2022/08/22 14:37:33;;;;;;;;;;;;;;;;;;4805361;29;20385;-44
2022/08/22 14:40:10;;;;;;;;;;;;;;;;;;4805163;29;19929;-44
2022/08/22 14:42:44;;;;;;;;;;;;;;;;;;4804891;29;19982;-44
2022/08/22 14:45:14;;;;;;;;;;;;;;;;;;4804723;29;19925;-44
2022/08/22 14:47:45;;;;;;;;;;;;;;;;;;4805156;29;20339;-49
2022/08/22 14:50:40;;;;;;;;;;;;;;;;;;4804496;29;19929;-47
2022/08/22 14:53:09;;;;;;;;;;;;;;;;;;4804977;29;19926;-44
2022/08/22 14:55:38;;;;;;;;;;;;;;;;;;4818832;29;19935;-45
2022/08/22 14:58:16;;;;;;;;;;;;;;;;;;4805017;29;19924;-46
2022/08/22 15:00:45;;;;;;;;;;;;;;;;;;4804748;29;20282;-43
2022/08/22 15:03:13;;;;;;;;;;;;;;;;;;4805100;29;19925;-45
2022/08/22 15:05:41;;;;;;;;;;;;;;;;;;4804695;29;20433;-44
2022/08/22 15:08:18;;;;;;;;;;;;;;;;;;4804801;29;20293;-43
2022/08/22 15:10:45;;;;;;;;;;;;;;;;;;4804767;29;19929;-44
2022/08/22 15:13:19;;;;;;;;;;;;;;;;;;4807874;29;19933;-45
2022/08/22 15:15:49;;;;;;;;;;;;;;;;;;4808285;29;19929;-45
2022/08/22 15:18:23;;;;;;;;;;;;;;;;;;4808090;29;19937;-45
2022/08/22 15:20:59;;;;;;;;;;;;;;;;;;4823292;29;19933;-46
2022/08/22 15:23:27;;;;;;;;;;;;;;;;;;4826018;29;19925;-43
2022/08/22 15:25:59;;;;;;;;;;;;;;;;;;4826254;29;19950;-49
2022/08/22 15:28:31;;;;;;;;;;;;;;;;;;4825962;29;19924;-43
2022/08/22 15:31:04;;;;;;;;;;;;;;;;;;4826191;29;19929;-45
2022/08/22 15:33:37;;;;;;;;;;;;;;;;;;4826371;29;19924;-44
2022/08/22 15:36:10;;;;;;;;;;;;;;;;;;4825717;29;19925;-45
2022/08/22 15:38:40;;;;;;;;;;;;;;;;;;4825838;29;19925;-44
2022/08/22 15:41:32;;;;;;;;;;;;;;;;;;4825435;29;19924;-43
2022/08/22 15:44:21;;;;;;;;;;;;;;;;;;4815430;29;19924;-48
2022/08/22 15:47:02;;;;;;;;;;;;;;;;;;4807698;29;19925;-44
2022/08/22 15:49:34;;;;;;;;;;;;;;;;;;4807749;29;19998;-44
2022/08/22 15:52:01;;;;;;;;;;;;;;;;;;4807806;29;19925;-49
2022/08/22 15:54:47;;;;;;;;;;;;;;;;;;4820088;29;19989;-42
2022/08/22 15:57:26;;;;;;;;;;;;;;;;;;4821409;29;19925;-41
2022/08/22 15:59:57;;;;;;;;;;;;;;;;;;4807505;29;19929;-40
2022/08/22 16:02:27;;;;;;;;;;;;;;;;;;4806238;29;20246;-42
2022/08/22 16:05:18;;;;;;;;;;;;;;;;;;4807561;29;19929;-44
2022/08/22 16:07:46;;;;;;;;;;;;;;;;;;4807120;29;19925;-44
2022/08/22 16:10:16;;;;;;;;;;;;;;;;;;4807265;29;20342;-43
2022/08/22 16:12:46;;;;;;;;;;;;;;;;;;4807240;29;19932;-43
2022/08/22 16:15:32;;;;;;;;;;;;;;;;;;4807172;29;19991;-45
2022/08/22 16:17:59;;;;;;;;;;;;;;;;;;4806942;29;20003;-43
2022/08/22 16:20:26;;;;;;;;;;;;;;;;;;4809123;29;19932;-44
2022/08/22 16:23:21;;;;;;;;;;;;;;;;;;4805907;29;19925;-48
2022/08/22 16:25:48;;;;;;;;;;;;;;;;;;4807063;29;19925;-42
2022/08/22 16:28:54;;;;;;;;;;;;;;;;;;4807190;29;19925;-47
2022/08/22 16:31:32;;;;;;;;;;;;;;;;;;4822601;29;19933;-44
2022/08/22 16:34:19;;;;;;;;;;;;;;;;;;4822993;29;19953;-44
2022/08/22 16:36:46;;;;;;;;;;;;;;;;;;4810042;29;19968;-46
2022/08/22 16:39:20;;;;;;;;;;;;;;;;;;4804834;29;19949;-44
2022/08/22 16:42:07;;;;;;;;;;;;;;;;;;4804929;29;19935;-47
2022/08/22 16:44:38;;;;;;;;;;;;;;;;;;4807828;29;19956;-44
2022/08/22 16:47:08;;;;;;;;;;;;;;;;;;4806332;29;19932;-46
2022/08/22 16:49:39;;;;;;;;;;;;;;;;;;4806791;29;20357;-45
2022/08/22 16:52:25;;;;;;;;;;;;;;;;;;4806159;29;19982;-44
2022/08/22 16:54:57;;;;;;;;;;;;;;;;;;4805883;29;20316;-49
2022/08/22 16:57:43;;;;;;;;;;;;;;;;;;4806489;29;19925;-46
2022/08/22 17:00:37;;;;;;;;;;;;;;;;;;4805723;29;19931;-44
2022/08/22 17:03:13;;;;;;;;;;;;;;;;;;4806482;29;19925;-44
2022/08/22 17:05:49;;;;;;;;;;;;;;;;;;4806108;29;20012;-47
2022/08/22 17:08:25;;;;;;;;;;;;;;;;;;4806382;29;19969;-46
2022/08/22 17:11:06;;;;;;;;;;;;;;;;;;4805504;29;19936;-43
2022/08/22 17:13:59;;;;;;;;;;;;;;;;;;4806451;29;19924;-44
2022/08/22 17:16:33;;;;;;;;;;;;;;;;;;4806107;29;19968;-43
2022/08/22 17:19:16;;;;;;;;;;;;;;;;;;4807608;29;19968;-45
2022/08/22 17:22:03;;;;;;;;;;;;;;;;;;4824265;29;19929;-43
2022/08/22 17:24:31;;;;;;;;;;;;;;;;;;4826386;29;19967;-46
2022/08/22 17:27:19;;;;;;;;;;;;;;;;;;4805923;29;19928;-43
2022/08/22 17:29:52;;;;;;;;;;;;;;;;;;4805930;29;20367;-46
2022/08/22 17:32:20;;;;;;;;;;;;;;;;;;4804979;29;20335;-44
2022/08/22 17:34:54;;;;;;;;;;;;;;;;;;4805586;29;20359;-44
2022/08/22 17:37:30;;;;;;;;;;;;;;;;;;4805771;29;20027;-46
2022/08/22 17:40:16;;;;;;;;;;;;;;;;;;4805389;29;19925;-44
2022/08/22 17:42:46;;;;;;;;;;;;;;;;;;4805385;29;20339;-45
2022/08/22 17:45:14;;;;;;;;;;;;;;;;;;4805798;29;19925;-46
2022/08/22 17:47:46;;;;;;;;;;;;;;;;;;4805822;29;19931;-45
2022/08/22 17:50:13;;;;;;;;;;;;;;;;;;4819639;29;19925;-44
2022/08/22 17:52:49;;;;;;;;;;;;;;;;;;4805505;29;19954;-43